sensor_id;sensor_type;location;lat;lon;timestamp;pressure;altitude;pressure_sealevel;temperature;humidity
44872;BME280;30602;51.060;17.226;2022-11-20T00:02:48;101323.05;;;-5.86;86.75
44872;BME280;30602;51.060;17.226;2022-11-20T00:06:29;101335.54;;;-5.91;86.23
44872;BME280;30602;51.060;17.226;2022-11-20T00:10:06;101328.55;;;-5.85;86.83
44872;BME280;30602;51.060;17.226;2022-11-20T00:13:14;101328.29;;;-5.91;86.60
44872;BME280;30602;51.060;17.226;2022-11-20T00:16:48;101329.83;;;-5.99;86.48
44872;BME280;30602;51.060;17.226;2022-11-20T00:20:16;101320.80;;;-6.00;86.44
44872;BME280;30602;51.060;17.226;2022-11-20T00:23:51;101319.37;;;-6.00;86.34
44872;BME280;30602;51.060;17.226;2022-11-20T00:27:04;101320.59;;;-6.03;86.53
44872;BME280;30602;51.060;17.226;2022-11-20T00:30:47;101322.20;;;-6.10;86.40
44872;BME280;30602;51.060;17.226;2022-11-20T00:34:00;101326.75;;;-6.07;86.05
44872;BME280;30602;51.060;17.226;2022-11-20T00:37:45;101327.26;;;-6.14;86.01
44872;BME280;30602;51.060;17.226;2022-11-20T00:45:32;101318.41;;;-6.27;85.67
44872;BME280;30602;51.060;17.226;2022-11-20T00:49:07;101329.55;;;-6.13;86.12
44872;BME280;30602;51.060;17.226;2022-11-20T00:52:25;101331.09;;;-6.13;86.00
44872;BME280;30602;51.060;17.226;2022-11-20T00:55:38;101337.68;;;-6.20;86.16
44872;BME280;30602;51.060;17.226;2022-11-20T00:58:54;101341.96;;;-6.18;86.33
44872;BME280;30602;51.060;17.226;2022-11-20T01:02:25;101341.81;;;-6.18;86.01
44872;BME280;30602;51.060;17.226;2022-11-20T01:09:58;101343.63;;;-6.26;85.50
44872;BME280;30602;51.060;17.226;2022-11-20T01:13:23;101348.40;;;-6.37;85.40
44872;BME280;30602;51.060;17.226;2022-11-20T01:17:03;101347.87;;;-6.45;85.65
44872;BME280;30602;51.060;17.226;2022-11-20T01:21:05;101346.70;;;-6.40;86.09
44872;BME280;30602;51.060;17.226;2022-11-20T01:24:17;101343.47;;;-6.33;86.42
44872;BME280;30602;51.060;17.226;2022-11-20T01:28:02;101348.00;;;-6.35;86.46
44872;BME280;30602;51.060;17.226;2022-11-20T01:31:33;101343.61;;;-6.29;87.12
44872;BME280;30602;51.060;17.226;2022-11-20T01:35:12;101338.00;;;-6.24;87.69
44872;BME280;30602;51.060;17.226;2022-11-20T01:38:26;101335.89;;;-6.28;87.41
44872;BME280;30602;51.060;17.226;2022-11-20T01:41:56;101332.41;;;-6.28;87.44
44872;BME280;30602;51.060;17.226;2022-11-20T01:56:40;101328.62;;;-6.19;87.92
44872;BME280;30602;51.060;17.226;2022-11-20T02:00:11;101330.02;;;-5.95;88.63
44872;BME280;30602;51.060;17.226;2022-11-20T02:03:47;101297.13;;;-6.16;88.29
44872;BME280;30602;51.060;17.226;2022-11-20T02:07:43;101328.67;;;-6.12;87.52
44872;BME280;30602;51.060;17.226;2022-11-20T02:11:16;101309.62;;;-6.30;86.53
44872;BME280;30602;51.060;17.226;2022-11-20T02:14:58;101326.93;;;-6.33;86.30
44872;BME280;30602;51.060;17.226;2022-11-20T02:18:39;101324.70;;;-6.43;85.97
44872;BME280;30602;51.060;17.226;2022-11-20T02:22:02;101321.07;;;-6.48;85.82
44872;BME280;30602;51.060;17.226;2022-11-20T02:26:09;101316.73;;;-6.60;85.61
44872;BME280;30602;51.060;17.226;2022-11-20T02:29:47;101321.39;;;-6.59;85.46
44872;BME280;30602;51.060;17.226;2022-11-20T02:33:38;101290.19;;;-6.79;85.80
44872;BME280;30602;51.060;17.226;2022-11-20T02:36:50;101316.12;;;-6.56;86.26
44872;BME280;30602;51.060;17.226;2022-11-20T02:40:27;101321.72;;;-6.53;86.53
44872;BME280;30602;51.060;17.226;2022-11-20T02:44:23;101318.98;;;-6.47;86.80
44872;BME280;30602;51.060;17.226;2022-11-20T02:47:58;101321.65;;;-6.44;87.46
44872;BME280;30602;51.060;17.226;2022-11-20T02:51:22;101313.16;;;-6.44;87.69
44872;BME280;30602;51.060;17.226;2022-11-20T02:54:52;101317.63;;;-6.39;87.76
44872;BME280;30602;51.060;17.226;2022-11-20T02:58:40;101318.88;;;-6.35;87.51
44872;BME280;30602;51.060;17.226;2022-11-20T03:02:01;101323.41;;;-6.36;87.57
44872;BME280;30602;51.060;17.226;2022-11-20T03:05:59;101320.44;;;-6.37;87.68
44872;BME280;30602;51.060;17.226;2022-11-20T03:09:16;101318.41;;;-6.40;87.68
44872;BME280;30602;51.060;17.226;2022-11-20T03:12:52;101317.77;;;-6.41;88.13
44872;BME280;30602;51.060;17.226;2022-11-20T03:16:33;101313.59;;;-6.45;88.11
44872;BME280;30602;51.060;17.226;2022-11-20T03:20:16;101309.73;;;-6.48;87.41
44872;BME280;30602;51.060;17.226;2022-11-20T03:23:38;101321.08;;;-6.47;87.17
44872;BME280;30602;51.060;17.226;2022-11-20T03:27:13;101317.59;;;-6.57;86.38
44872;BME280;30602;51.060;17.226;2022-11-20T03:30:47;101316.95;;;-6.56;86.70
44872;BME280;30602;51.060;17.226;2022-11-20T03:34:23;101319.94;;;-6.50;87.03
44872;BME280;30602;51.060;17.226;2022-11-20T03:38:22;101319.43;;;-6.53;86.88
44872;BME280;30602;51.060;17.226;2022-11-20T03:42:04;101315.38;;;-6.56;86.72
44872;BME280;30602;51.060;17.226;2022-11-20T03:45:59;101316.12;;;-6.60;86.29
44872;BME280;30602;51.060;17.226;2022-11-20T03:49:13;101313.98;;;-6.64;86.39
44872;BME280;30602;51.060;17.226;2022-11-20T03:52:25;101314.84;;;-6.69;86.47
44872;BME280;30602;51.060;17.226;2022-11-20T03:55:38;101319.25;;;-6.89;86.28
44872;BME280;30602;51.060;17.226;2022-11-20T03:59:11;101323.80;;;-6.92;86.18
44872;BME280;30602;51.060;17.226;2022-11-20T04:02:50;101320.38;;;-6.99;86.08
44872;BME280;30602;51.060;17.226;2022-11-20T04:07:04;101317.52;;;-6.99;86.31
44872;BME280;30602;51.060;17.226;2022-11-20T04:10:39;101322.04;;;-6.87;86.72
44872;BME280;30602;51.060;17.226;2022-11-20T04:14:26;101322.91;;;-6.77;87.04
44872;BME280;30602;51.060;17.226;2022-11-20T04:17:57;101321.05;;;-6.81;87.44
44872;BME280;30602;51.060;17.226;2022-11-20T04:21:45;101293.85;;;-7.01;87.70
44872;BME280;30602;51.060;17.226;2022-11-20T04:25:28;101328.52;;;-6.73;87.53
44872;BME280;30602;51.060;17.226;2022-11-20T04:29:20;101326.98;;;-6.68;87.50
44872;BME280;30602;51.060;17.226;2022-11-20T04:32:35;101333.17;;;-6.79;87.02
44872;BME280;30602;51.060;17.226;2022-11-20T04:36:24;101332.90;;;-6.85;86.70
44872;BME280;30602;51.060;17.226;2022-11-20T04:39:55;101334.77;;;-6.86;86.58
44872;BME280;30602;51.060;17.226;2022-11-20T04:44:06;101312.92;;;-6.88;86.78
44872;BME280;30602;51.060;17.226;2022-11-20T04:47:43;101323.98;;;-6.83;86.82
44872;BME280;30602;51.060;17.226;2022-11-20T04:51:31;101316.38;;;-6.76;87.40
44872;BME280;30602;51.060;17.226;2022-11-20T04:54:55;101309.69;;;-6.81;87.06
44872;BME280;30602;51.060;17.226;2022-11-20T04:58:25;101300.32;;;-6.79;87.29
44872;BME280;30602;51.060;17.226;2022-11-20T05:02:17;101281.71;;;-6.98;86.71
44872;BME280;30602;51.060;17.226;2022-11-20T05:06:34;101305.68;;;-6.88;86.48
44872;BME280;30602;51.060;17.226;2022-11-20T05:10:09;101304.75;;;-6.93;85.88
44872;BME280;30602;51.060;17.226;2022-11-20T05:13:23;101306.88;;;-7.01;85.64
44872;BME280;30602;51.060;17.226;2022-11-20T05:16:56;101301.02;;;-7.08;85.37
44872;BME280;30602;51.060;17.226;2022-11-20T05:20:08;101296.64;;;-7.04;85.45
44872;BME280;30602;51.060;17.226;2022-11-20T05:23:15;101299.77;;;-7.04;85.66
44872;BME280;30602;51.060;17.226;2022-11-20T05:27:30;101295.81;;;-7.22;85.54
44872;BME280;30602;51.060;17.226;2022-11-20T05:31:32;101298.42;;;-7.06;85.72
44872;BME280;30602;51.060;17.226;2022-11-20T05:35:44;101298.26;;;-7.08;85.97
44872;BME280;30602;51.060;17.226;2022-11-20T05:39:19;101296.34;;;-7.12;86.19
44872;BME280;30602;51.060;17.226;2022-11-20T05:43:39;101295.15;;;-7.16;87.20
44872;BME280;30602;51.060;17.226;2022-11-20T05:47:42;101295.17;;;-7.01;87.68
44872;BME280;30602;51.060;17.226;2022-11-20T05:51:47;101288.84;;;-7.05;87.18
44872;BME280;30602;51.060;17.226;2022-11-20T05:55:24;101290.27;;;-6.99;87.12
44872;BME280;30602;51.060;17.226;2022-11-20T05:59:17;101281.74;;;-7.04;86.92
44872;BME280;30602;51.060;17.226;2022-11-20T06:07:09;101275.31;;;-7.14;86.00
44872;BME280;30602;51.060;17.226;2022-11-20T06:11:14;101277.86;;;-7.14;85.78
44872;BME280;30602;51.060;17.226;2022-11-20T06:14:43;101273.72;;;-7.16;85.43
44872;BME280;30602;51.060;17.226;2022-11-20T06:18:33;101274.63;;;-7.17;85.42
44872;BME280;30602;51.060;17.226;2022-11-20T06:21:50;101270.23;;;-7.18;85.54
44872;BME280;30602;51.060;17.226;2022-11-20T06:25:19;101265.90;;;-7.16;85.22
44872;BME280;30602;51.060;17.226;2022-11-20T06:28:56;101251.62;;;-7.38;85.09
44872;BME280;30602;51.060;17.226;2022-11-20T06:32:28;101248.24;;;-7.34;85.72
44872;BME280;30602;51.060;17.226;2022-11-20T06:36:30;101264.17;;;-7.21;86.35
44872;BME280;30602;51.060;17.226;2022-11-20T06:40:14;101265.29;;;-7.17;86.78
44872;BME280;30602;51.060;17.226;2022-11-20T06:43:23;101269.14;;;-7.15;86.50
44872;BME280;30602;51.060;17.226;2022-11-20T06:46:53;101268.40;;;-7.23;86.16
44872;BME280;30602;51.060;17.226;2022-11-20T06:50:06;101266.17;;;-7.19;86.25
44872;BME280;30602;51.060;17.226;2022-11-20T06:53:38;101262.00;;;-7.16;86.70
44872;BME280;30602;51.060;17.226;2022-11-20T06:56:48;101267.98;;;-7.01;87.13
44872;BME280;30602;51.060;17.226;2022-11-20T06:59:58;101269.35;;;-6.82;87.98
44872;BME280;30602;51.060;17.226;2022-11-20T07:03:12;101271.68;;;-6.70;88.62
44872;BME280;30602;51.060;17.226;2022-11-20T07:06:30;101271.37;;;-6.60;88.81
44872;BME280;30602;51.060;17.226;2022-11-20T07:10:27;101272.23;;;-6.51;88.82
44872;BME280;30602;51.060;17.226;2022-11-20T07:13:51;101270.75;;;-6.38;88.71
44872;BME280;30602;51.060;17.226;2022-11-20T07:17:06;101266.37;;;-6.33;88.73
44872;BME280;30602;51.060;17.226;2022-11-20T07:20:36;101269.34;;;-6.23;88.92
44872;BME280;30602;51.060;17.226;2022-11-20T07:24:41;101264.75;;;-6.17;89.04
44872;BME280;30602;51.060;17.226;2022-11-20T07:28:06;101261.82;;;-6.10;88.69
44872;BME280;30602;51.060;17.226;2022-11-20T07:31:17;101253.31;;;-6.05;88.88
44872;BME280;30602;51.060;17.226;2022-11-20T07:35:10;101250.22;;;-5.98;88.87
44872;BME280;30602;51.060;17.226;2022-11-20T07:38:27;101245.02;;;-5.86;88.99
44872;BME280;30602;51.060;17.226;2022-11-20T07:42:09;101242.84;;;-5.79;89.40
44872;BME280;30602;51.060;17.226;2022-11-20T07:45:23;101241.20;;;-5.63;89.57
44872;BME280;30602;51.060;17.226;2022-11-20T07:49:17;101241.81;;;-5.58;90.14
44872;BME280;30602;51.060;17.226;2022-11-20T07:53:05;101244.05;;;-5.38;90.20
44872;BME280;30602;51.060;17.226;2022-11-20T07:57:00;101239.55;;;-5.26;90.41
44872;BME280;30602;51.060;17.226;2022-11-20T08:00:41;101224.57;;;-5.14;90.60
44872;BME280;30602;51.060;17.226;2022-11-20T08:04:10;101226.18;;;-5.01;90.76
44872;BME280;30602;51.060;17.226;2022-11-20T08:07:51;101226.70;;;-4.88;90.75
44872;BME280;30602;51.060;17.226;2022-11-20T08:11:08;101211.77;;;-4.84;90.59
44872;BME280;30602;51.060;17.226;2022-11-20T08:14:30;101225.98;;;-4.72;90.84
44872;BME280;30602;51.060;17.226;2022-11-20T08:18:18;101225.38;;;-4.65;90.77
44872;BME280;30602;51.060;17.226;2022-11-20T08:21:59;101212.98;;;-4.54;90.93
44872;BME280;30602;51.060;17.226;2022-11-20T08:26:07;101213.90;;;-4.45;90.80
44872;BME280;30602;51.060;17.226;2022-11-20T08:29:55;101211.48;;;-4.40;90.55
44872;BME280;30602;51.060;17.226;2022-11-20T08:33:30;101213.91;;;-4.32;90.52
44872;BME280;30602;51.060;17.226;2022-11-20T08:37:29;101207.79;;;-4.23;90.46
44872;BME280;30602;51.060;17.226;2022-11-20T08:40:42;101204.09;;;-4.13;90.14
44872;BME280;30602;51.060;17.226;2022-11-20T08:44:17;101203.68;;;-4.10;89.94
44872;BME280;30602;51.060;17.226;2022-11-20T08:48:08;101201.35;;;-4.01;89.74
44872;BME280;30602;51.060;17.226;2022-11-20T08:51:27;101202.17;;;-3.93;89.34
44872;BME280;30602;51.060;17.226;2022-11-20T08:54:41;101204.30;;;-3.92;89.11
44872;BME280;30602;51.060;17.226;2022-11-20T08:58:10;101195.90;;;-3.81;89.16
44872;BME280;30602;51.060;17.226;2022-11-20T09:01:40;101192.52;;;-3.67;88.41
44872;BME280;30602;51.060;17.226;2022-11-20T09:05:39;101196.34;;;-3.59;86.76
44872;BME280;30602;51.060;17.226;2022-11-20T09:09:14;101193.90;;;-3.37;86.24
44872;BME280;30602;51.060;17.226;2022-11-20T09:12:42;101188.24;;;-3.23;85.70
44872;BME280;30602;51.060;17.226;2022-11-20T09:16:27;101184.31;;;-3.16;84.19
44872;BME280;30602;51.060;17.226;2022-11-20T09:19:38;101178.57;;;-3.11;85.19
44872;BME280;30602;51.060;17.226;2022-11-20T09:22:51;101161.54;;;-3.13;85.73
44872;BME280;30602;51.060;17.226;2022-11-20T09:26:10;101183.98;;;-2.95;86.27
44872;BME280;30602;51.060;17.226;2022-11-20T09:33:46;101169.54;;;-2.83;83.81
44872;BME280;30602;51.060;17.226;2022-11-20T09:36:58;101164.89;;;-2.83;83.62
44872;BME280;30602;51.060;17.226;2022-11-20T09:40:35;101159.30;;;-2.73;84.33
44872;BME280;30602;51.060;17.226;2022-11-20T09:51:56;101128.39;;;-2.80;83.89
44872;BME280;30602;51.060;17.226;2022-11-20T09:55:37;101138.45;;;-2.46;83.51
44872;BME280;30602;51.060;17.226;2022-11-20T09:59:37;101132.21;;;-2.46;83.79
44872;BME280;30602;51.060;17.226;2022-11-20T10:03:16;101131.60;;;-2.39;83.61
44872;BME280;30602;51.060;17.226;2022-11-20T10:06:55;101136.32;;;-2.33;83.76
44872;BME280;30602;51.060;17.226;2022-11-20T10:11:06;101122.42;;;-2.31;83.24
44872;BME280;30602;51.060;17.226;2022-11-20T10:14:35;101137.52;;;-2.04;83.01
44872;BME280;30602;51.060;17.226;2022-11-20T10:26:03;101118.09;;;-1.69;81.62
44872;BME280;30602;51.060;17.226;2022-11-20T10:29:16;101115.76;;;-1.62;81.49
44872;BME280;30602;51.060;17.226;2022-11-20T10:32:58;101104.87;;;-1.53;80.90
44872;BME280;30602;51.060;17.226;2022-11-20T10:36:58;101099.56;;;-1.51;80.17
44872;BME280;30602;51.060;17.226;2022-11-20T10:40:46;101091.80;;;-1.40;79.86
44872;BME280;30602;51.060;17.226;2022-11-20T10:44:25;101079.94;;;-1.33;79.79
44872;BME280;30602;51.060;17.226;2022-11-20T10:47:52;101075.78;;;-1.27;78.40
44872;BME280;30602;51.060;17.226;2022-11-20T10:51:50;101079.26;;;-1.20;79.20
44872;BME280;30602;51.060;17.226;2022-11-20T10:55:25;101073.12;;;-1.06;78.45
44872;BME280;30602;51.060;17.226;2022-11-20T11:02:50;101076.02;;;-0.76;77.55
44872;BME280;30602;51.060;17.226;2022-11-20T11:10:43;101071.14;;;-0.54;76.76
44872;BME280;30602;51.060;17.226;2022-11-20T11:14:44;101066.68;;;-0.52;76.44
44872;BME280;30602;51.060;17.226;2022-11-20T11:21:34;101056.40;;;-0.29;77.17
44872;BME280;30602;51.060;17.226;2022-11-20T11:28:57;101047.13;;;-0.12;76.21
44872;BME280;30602;51.060;17.226;2022-11-20T11:32:25;101029.05;;;-0.18;76.10
44872;BME280;30602;51.060;17.226;2022-11-20T11:35:45;101039.98;;;-0.03;76.04
44872;BME280;30602;51.060;17.226;2022-11-20T11:39:13;101036.39;;;0.05;76.06
44872;BME280;30602;51.060;17.226;2022-11-20T11:42:23;101019.46;;;0.08;75.37
44872;BME280;30602;51.060;17.226;2022-11-20T11:53:47;101006.93;;;0.33;74.21
44872;BME280;30602;51.060;17.226;2022-11-20T11:56:57;101004.54;;;0.42;72.96
44872;BME280;30602;51.060;17.226;2022-11-20T12:12:55;100980.32;;;0.98;78.16
44872;BME280;30602;51.060;17.226;2022-11-20T12:16:14;100975.34;;;0.68;70.97
44872;BME280;30602;51.060;17.226;2022-11-20T12:19:43;100973.15;;;0.63;71.00
44872;BME280;30602;51.060;17.226;2022-11-20T12:49:16;100963.27;;;0.45;70.90
44872;BME280;30602;51.060;17.226;2022-11-20T12:52:56;100972.55;;;0.55;70.84
44872;BME280;30602;51.060;17.226;2022-11-20T13:01:06;100965.30;;;0.54;70.15
44872;BME280;30602;51.060;17.226;2022-11-20T13:09:26;100959.95;;;0.56;69.89
44872;BME280;30602;51.060;17.226;2022-11-20T13:13:14;100952.30;;;0.54;69.48
44872;BME280;30602;51.060;17.226;2022-11-20T13:20:35;100938.80;;;0.68;71.33
44872;BME280;30602;51.060;17.226;2022-11-20T13:24:07;100935.12;;;0.56;70.60
44872;BME280;30602;51.060;17.226;2022-11-20T13:27:47;100926.94;;;0.50;71.51
44872;BME280;30602;51.060;17.226;2022-11-20T13:31:34;100915.08;;;0.52;71.98
44872;BME280;30602;51.060;17.226;2022-11-20T13:35:03;100910.13;;;0.49;73.14
44872;BME280;30602;51.060;17.226;2022-11-20T13:38:47;100905.73;;;0.46;73.90
44872;BME280;30602;51.060;17.226;2022-11-20T13:43:01;100906.92;;;0.38;74.54
44872;BME280;30602;51.060;17.226;2022-11-20T13:46:13;100900.45;;;0.32;75.00
44872;BME280;30602;51.060;17.226;2022-11-20T13:49:59;100895.80;;;0.33;75.19
44872;BME280;30602;51.060;17.226;2022-11-20T14:01:54;100888.73;;;0.15;76.37
44872;BME280;30602;51.060;17.226;2022-11-20T14:05:22;100892.81;;;0.12;77.27
44872;BME280;30602;51.060;17.226;2022-11-20T14:08:53;100887.84;;;0.22;77.63
44872;BME280;30602;51.060;17.226;2022-11-20T14:12:53;100886.18;;;0.16;77.84
44872;BME280;30602;51.060;17.226;2022-11-20T14:16:37;100881.12;;;0.15;77.80
44872;BME280;30602;51.060;17.226;2022-11-20T14:20:52;100881.55;;;0.15;77.14
44872;BME280;30602;51.060;17.226;2022-11-20T14:24:23;100879.98;;;0.14;77.16
44872;BME280;30602;51.060;17.226;2022-11-20T14:28:00;100876.35;;;0.13;77.06
44872;BME280;30602;51.060;17.226;2022-11-20T14:32:01;100867.32;;;0.05;77.48
44872;BME280;30602;51.060;17.226;2022-11-20T14:35:23;100866.25;;;-0.03;77.75
44872;BME280;30602;51.060;17.226;2022-11-20T14:38:35;100865.19;;;-0.12;77.88
44872;BME280;30602;51.060;17.226;2022-11-20T14:42:17;100869.17;;;-0.14;78.03
44872;BME280;30602;51.060;17.226;2022-11-20T14:49:41;100874.12;;;-0.38;78.69
44872;BME280;30602;51.060;17.226;2022-11-20T14:53:10;100871.34;;;-0.38;79.12
44872;BME280;30602;51.060;17.226;2022-11-20T14:57:36;100870.34;;;-0.52;79.71
44872;BME280;30602;51.060;17.226;2022-11-20T15:02:09;100869.72;;;-0.66;80.41
44872;BME280;30602;51.060;17.226;2022-11-20T15:05:25;100867.54;;;-0.79;80.71
44872;BME280;30602;51.060;17.226;2022-11-20T15:09:14;100874.09;;;-0.93;81.72
44872;BME280;30602;51.060;17.226;2022-11-20T15:14:04;100873.56;;;-0.95;81.91
44872;BME280;30602;51.060;17.226;2022-11-20T15:17:42;100876.81;;;-1.02;81.70
44872;BME280;30602;51.060;17.226;2022-11-20T15:21:28;100865.82;;;-1.25;82.09
44872;BME280;30602;51.060;17.226;2022-11-20T15:28:40;100875.02;;;-1.44;82.73
44872;BME280;30602;51.060;17.226;2022-11-20T15:33:01;100881.35;;;-1.51;83.40
44872;BME280;30602;51.060;17.226;2022-11-20T15:36:23;100882.42;;;-1.62;83.31
44872;BME280;30602;51.060;17.226;2022-11-20T15:39:30;100881.02;;;-1.67;83.96
44872;BME280;30602;51.060;17.226;2022-11-20T15:43:15;100881.77;;;-1.72;84.59
44872;BME280;30602;51.060;17.226;2022-11-20T15:46:47;100879.95;;;-1.72;84.80
44872;BME280;30602;51.060;17.226;2022-11-20T15:50:14;100874.00;;;-1.80;84.71
44872;BME280;30602;51.060;17.226;2022-11-20T15:53:54;100875.26;;;-1.83;84.81
44872;BME280;30602;51.060;17.226;2022-11-20T15:57:33;100871.91;;;-1.92;84.86
44872;BME280;30602;51.060;17.226;2022-11-20T16:01:22;100875.31;;;-1.90;84.90
44872;BME280;30602;51.060;17.226;2022-11-20T16:04:58;100873.87;;;-1.98;84.57
44872;BME280;30602;51.060;17.226;2022-11-20T16:12:36;100872.00;;;-2.03;84.95
44872;BME280;30602;51.060;17.226;2022-11-20T16:16:31;100868.07;;;-2.07;84.82
44872;BME280;30602;51.060;17.226;2022-11-20T16:19:41;100866.92;;;-2.07;84.77
44872;BME280;30602;51.060;17.226;2022-11-20T16:23:35;100863.77;;;-2.08;84.99
44872;BME280;30602;51.060;17.226;2022-11-20T16:27:20;100865.99;;;-2.16;84.68
44872;BME280;30602;51.060;17.226;2022-11-20T16:35:07;100865.73;;;-2.37;84.29
44872;BME280;30602;51.060;17.226;2022-11-20T16:38:20;100859.47;;;-2.50;84.21
44872;BME280;30602;51.060;17.226;2022-11-20T16:42:12;100868.64;;;-2.58;84.29
44872;BME280;30602;51.060;17.226;2022-11-20T16:46:32;100861.17;;;-2.60;84.79
44872;BME280;30602;51.060;17.226;2022-11-20T16:50:33;100857.01;;;-2.66;84.32
44872;BME280;30602;51.060;17.226;2022-11-20T16:53:54;100856.18;;;-2.72;84.50
44872;BME280;30602;51.060;17.226;2022-11-20T17:01:26;100856.88;;;-2.73;85.22
44872;BME280;30602;51.060;17.226;2022-11-20T17:05:53;100853.00;;;-2.74;85.98
44872;BME280;30602;51.060;17.226;2022-11-20T17:09:44;100854.20;;;-2.77;85.97
44872;BME280;30602;51.060;17.226;2022-11-20T17:13:17;100859.10;;;-2.88;85.97
44872;BME280;30602;51.060;17.226;2022-11-20T17:16:53;100860.15;;;-2.97;85.95
44872;BME280;30602;51.060;17.226;2022-11-20T17:20:37;100864.68;;;-2.96;86.24
44872;BME280;30602;51.060;17.226;2022-11-20T17:24:11;100864.30;;;-3.04;86.25
44872;BME280;30602;51.060;17.226;2022-11-20T17:27:57;100867.91;;;-2.99;87.15
44872;BME280;30602;51.060;17.226;2022-11-20T17:31:17;100869.92;;;-3.02;87.21
44872;BME280;30602;51.060;17.226;2022-11-20T17:34:54;100845.27;;;-3.07;87.02
44872;BME280;30602;51.060;17.226;2022-11-20T17:38:28;100874.29;;;-2.91;87.19
44872;BME280;30602;51.060;17.226;2022-11-20T17:42:06;100874.11;;;-3.01;86.62
44872;BME280;30602;51.060;17.226;2022-11-20T17:46:31;100801.95;;;-3.43;86.55
44872;BME280;30602;51.060;17.226;2022-11-20T17:50:13;100872.57;;;-3.04;86.30
44872;BME280;30602;51.060;17.226;2022-11-20T17:53:28;100860.39;;;-3.14;86.29
44872;BME280;30602;51.060;17.226;2022-11-20T17:57:00;100886.81;;;-3.02;86.64
44872;BME280;30602;51.060;17.226;2022-11-20T18:00:27;100888.48;;;-2.96;87.18
44872;BME280;30602;51.060;17.226;2022-11-20T18:03:52;100891.17;;;-3.08;87.35
44872;BME280;30602;51.060;17.226;2022-11-20T18:07:30;100884.56;;;-3.08;87.97
44872;BME280;30602;51.060;17.226;2022-11-20T18:10:41;100879.46;;;-3.03;88.60
44872;BME280;30602;51.060;17.226;2022-11-20T18:14:20;100858.84;;;-3.09;88.82
44872;BME280;30602;51.060;17.226;2022-11-20T18:18:29;100880.47;;;-2.82;89.56
44872;BME280;30602;51.060;17.226;2022-11-20T18:21:43;100876.52;;;-2.83;88.90
44872;BME280;30602;51.060;17.226;2022-11-20T18:25:16;100874.27;;;-2.82;89.04
44872;BME280;30602;51.060;17.226;2022-11-20T18:28:29;100871.70;;;-2.81;88.90
44872;BME280;30602;51.060;17.226;2022-11-20T18:32:03;100862.40;;;-2.86;89.11
44872;BME280;30602;51.060;17.226;2022-11-20T18:35:33;100855.69;;;-2.79;89.15
44872;BME280;30602;51.060;17.226;2022-11-20T18:38:56;100850.85;;;-2.95;88.77
44872;BME280;30602;51.060;17.226;2022-11-20T18:43:12;100872.05;;;-2.84;88.45
44872;BME280;30602;51.060;17.226;2022-11-20T18:46:50;100870.54;;;-2.88;87.91
44872;BME280;30602;51.060;17.226;2022-11-20T18:51:07;100869.68;;;-2.93;87.69
44872;BME280;30602;51.060;17.226;2022-11-20T18:54:29;100877.77;;;-2.96;87.22
44872;BME280;30602;51.060;17.226;2022-11-20T18:57:49;100871.35;;;-3.05;87.36
44872;BME280;30602;51.060;17.226;2022-11-20T19:02:02;100889.95;;;-3.06;87.75
44872;BME280;30602;51.060;17.226;2022-11-20T19:05:47;100889.35;;;-3.03;87.65
44872;BME280;30602;51.060;17.226;2022-11-20T19:09:24;100882.30;;;-3.17;87.37
44872;BME280;30602;51.060;17.226;2022-11-20T19:13:32;100883.10;;;-3.12;87.36
44872;BME280;30602;51.060;17.226;2022-11-20T19:17:16;100874.41;;;-3.13;87.35
44872;BME280;30602;51.060;17.226;2022-11-20T19:20:56;100873.17;;;-3.21;87.28
44872;BME280;30602;51.060;17.226;2022-11-20T19:24:34;100875.78;;;-3.46;86.46
44872;BME280;30602;51.060;17.226;2022-11-20T19:29:16;100882.62;;;-3.45;86.78
44872;BME280;30602;51.060;17.226;2022-11-20T19:32:41;100888.77;;;-3.36;87.43
44872;BME280;30602;51.060;17.226;2022-11-20T19:36:44;100893.72;;;-3.28;88.26
44872;BME280;30602;51.060;17.226;2022-11-20T19:44:18;100896.88;;;-3.16;89.02
44872;BME280;30602;51.060;17.226;2022-11-20T19:48:01;100896.73;;;-3.11;89.84
44872;BME280;30602;51.060;17.226;2022-11-20T19:51:49;100894.94;;;-3.04;90.42
44872;BME280;30602;51.060;17.226;2022-11-20T19:55:12;100888.68;;;-2.96;90.77
44872;BME280;30602;51.060;17.226;2022-11-20T19:59:04;100886.38;;;-2.96;91.03
44872;BME280;30602;51.060;17.226;2022-11-20T20:02:20;100873.05;;;-3.00;91.29
44872;BME280;30602;51.060;17.226;2022-11-20T20:05:38;100888.48;;;-2.87;91.43
44872;BME280;30602;51.060;17.226;2022-11-20T20:09:07;100898.49;;;-2.80;91.31
44872;BME280;30602;51.060;17.226;2022-11-20T20:12:28;100908.96;;;-2.78;91.05
44872;BME280;30602;51.060;17.226;2022-11-20T20:16:15;100918.61;;;-2.89;91.05
44872;BME280;30602;51.060;17.226;2022-11-20T20:19:38;100915.25;;;-2.81;91.98
44872;BME280;30602;51.060;17.226;2022-11-20T20:23:10;100888.59;;;-2.92;92.37
44872;BME280;30602;51.060;17.226;2022-11-20T20:27:04;100912.09;;;-2.73;92.69
44872;BME280;30602;51.060;17.226;2022-11-20T20:30:35;100904.18;;;-2.72;93.20
44872;BME280;30602;51.060;17.226;2022-11-20T20:33:49;100907.01;;;-2.61;93.08
44872;BME280;30602;51.060;17.226;2022-11-20T20:37:12;100906.34;;;-2.63;93.30
44872;BME280;30602;51.060;17.226;2022-11-20T20:40:54;100906.09;;;-2.58;93.12
44872;BME280;30602;51.060;17.226;2022-11-20T20:49:02;100896.05;;;-2.57;92.95
44872;BME280;30602;51.060;17.226;2022-11-20T20:53:03;100890.43;;;-2.60;93.03
44872;BME280;30602;51.060;17.226;2022-11-20T20:56:18;100869.72;;;-2.73;92.48
44872;BME280;30602;51.060;17.226;2022-11-20T21:00:10;100890.41;;;-2.65;92.26
44872;BME280;30602;51.060;17.226;2022-11-20T21:03:21;100889.62;;;-2.78;91.75
44872;BME280;30602;51.060;17.226;2022-11-20T21:07:07;100893.33;;;-2.88;91.47
44872;BME280;30602;51.060;17.226;2022-11-20T21:11:03;100894.07;;;-2.90;91.21
44872;BME280;30602;51.060;17.226;2022-11-20T21:14:17;100897.88;;;-2.97;90.76
44872;BME280;30602;51.060;17.226;2022-11-20T21:18:00;100892.05;;;-3.08;90.62